Terminal Aerodrome Forecast
Issued by NWS

Home | Current Version | Previous Version | Text Only | Print | Product List | Glossary On
Versions: 1 2 3 4 5 6 7 8 9 10 11 12 13
693
FTUS44 KCRP 232335
TAFALI
TAF
KALI 232335Z 2400/2424 12012G20KT P6SM SCT050
     FM240100 15010KT P6SM SKC
     FM240800 16004KT P6SM SCT015
     FM241500 16012G18KT P6SM SCT025
     FM242000 13015G22KT P6SM SCT050=

USA.gov is the U.S. government's official web portal to all federal, state and local government web resources and services.